Time;durP1;ratioP1;P1;durP2;ratioP2;P2;SDS_P1;SDS_P2;PMS_P1;PMS_P2;Temp;Humidity;BMP_temperature;BMP_pressure;BME280_temperature;BME280_humidity;BME280_pressure;Samples;Min_cycle;Max_cycle;Signal;HPM_P1;HPM_P2
2019/09/22 00:00:13;;;;;;;5.9;3.1;;;;;;;14.42;65.26074;999.3332;;;;
2019/09/22 00:02:35;;;;;;;4.2;3.1;;;;;;;14.4;65.33887;999.3;;;;
2019/09/22 00:05:00;;;;;;;7.1;3;;;;;;;14.37;65.49609;999.2683;;;;
2019/09/22 00:07:25;;;;;;;5.5;2.8;;;;;;;14.46;65.11719;999.2392;;;;
2019/09/22 00:09:50;;;;;;;4.7;2.9;;;;;;;14.45;65.16113;999.2269;;;;
2019/09/22 00:12:15;;;;;;;7.2;3;;;;;;;14.47;65.07227;999.1951;;;;
2019/09/22 00:14:41;;;;;;;5.8;3.2;;;;;;;14.41;65.43262;999.2389;;;;
2019/09/22 00:17:06;;;;;;;5.6;3;;;;;;;14.34;65.47949;999.2561;;;;
2019/09/22 00:19:31;;;;;;;6.1;3.3;;;;;;;14.26;65.90625;999.2614;;;;
2019/09/22 00:21:56;;;;;;;7.7;3.3;;;;;;;14.09;66.33203;999.289;;;;
2019/09/22 00:24:21;;;;;;;6.5;3.7;;;;;;;13.98;66.26953;999.3132;;;;
2019/09/22 00:26:46;;;;;;;5.7;3.6;;;;;;;13.91;66.63867;999.3197;;;;
2019/09/22 00:29:11;;;;;;;6.6;4.2;;;;;;;13.68;67.45605;999.3345;;;;
2019/09/22 00:31:36;;;;;;;6.1;3.6;;;;;;;13.48;68.32324;999.3807;;;;
2019/09/22 00:34:02;;;;;;;9.5;4.4;;;;;;;13.36;68.55859;999.3474;;;;
2019/09/22 00:36:27;;;;;;;6.9;4;;;;;;;13.18;69.61328;999.3483;;;;
2019/09/22 00:38:52;;;;;;;8;4.6;;;;;;;13.05;70.04199;999.3295;;;;
2019/09/22 00:41:17;;;;;;;7.4;4.4;;;;;;;12.83;70.97363;999.3689;;;;
2019/09/22 00:43:42;;;;;;;7.1;4.5;;;;;;;12.79;71.26563;999.3328;;;;
2019/09/22 00:46:07;;;;;;;9.4;4.9;;;;;;;12.81;71.23438;999.3375;;;;
2019/09/22 00:48:32;;;;;;;6.9;5;;;;;;;12.76;71.33008;999.4244;;;;
2019/09/22 00:50:57;;;;;;;7;5.3;;;;;;;12.68;71.62793;999.4142;;;;
2019/09/22 00:53:22;;;;;;;8.3;5.2;;;;;;;12.56;72.08984;999.3649;;;;
2019/09/22 00:55:48;;;;;;;7.3;4.8;;;;;;;12.55;72.05566;999.312;;;;
2019/09/22 00:58:12;;;;;;;9.3;4.7;;;;;;;12.5;72.23047;999.3301;;;;
2019/09/22 01:00:38;;;;;;;7.6;4.5;;;;;;;12.47;72.43262;999.3214;;;;
2019/09/22 01:03:03;;;;;;;5.8;4.2;;;;;;;12.48;72.51367;999.3594;;;;
2019/09/22 01:05:28;;;;;;;7.4;4.5;;;;;;;12.38;72.86621;999.3747;;;;
2019/09/22 01:07:53;;;;;;;7.7;5.1;;;;;;;12.39;72.8457;999.3756;;;;
2019/09/22 01:10:18;;;;;;;8.2;5.1;;;;;;;12.16;73.75879;999.4925;;;;
2019/09/22 01:12:43;;;;;;;10.1;5.6;;;;;;;12.09;74.10449;999.4403;;;;
2019/09/22 01:15:08;;;;;;;9.4;5.4;;;;;;;12.04;74.3252;999.4436;;;;
2019/09/22 01:17:33;;;;;;;8.1;5.1;;;;;;;12.08;74.2627;999.4481;;;;
2019/09/22 01:19:58;;;;;;;8.6;5.4;;;;;;;12.1;74.07129;999.3965;;;;
2019/09/22 01:22:23;;;;;;;6.7;4.6;;;;;;;12.11;73.93555;999.3279;;;;
2019/09/22 01:24:48;;;;;;;7.4;4.8;;;;;;;12.08;74.06836;999.2986;;;;
2019/09/22 01:27:14;;;;;;;7.7;4.9;;;;;;;12.13;73.97168;999.2929;;;;
2019/09/22 01:29:39;;;;;;;9.6;5;;;;;;;11.98;74.53223;999.2697;;;;
2019/09/22 01:32:04;;;;;;;8.2;4.9;;;;;;;11.9;74.65625;999.2501;;;;
2019/09/22 01:34:29;;;;;;;8.4;4.8;;;;;;;11.84;75.00293;999.351;;;;
2019/09/22 01:36:54;;;;;;;9.5;4.8;;;;;;;11.74;75.47754;999.3644;;;;
2019/09/22 01:39:19;;;;;;;6.9;4.4;;;;;;;11.77;75.39355;999.2729;;;;
2019/09/22 01:41:44;;;;;;;7.3;4.3;;;;;;;11.82;75.10156;999.2626;;;;
2019/09/22 01:44:09;;;;;;;7;4.3;;;;;;;11.82;74.91992;999.287;;;;
2019/09/22 01:46:35;;;;;;;8.6;4.6;;;;;;;11.65;75.64746;999.3173;;;;
2019/09/22 01:49:00;;;;;;;7.3;4.6;;;;;;;11.59;76.00391;999.387;;;;
2019/09/22 01:51:25;;;;;;;6.6;4;;;;;;;11.55;76.2041;999.38;;;;
2019/09/22 01:53:50;;;;;;;6.8;4.3;;;;;;;11.57;76.16113;999.3826;;;;
2019/09/22 01:56:15;;;;;;;6.3;4;;;;;;;11.54;76.2373;999.3804;;;;
2019/09/22 01:58:40;;;;;;;7;4.5;;;;;;;11.44;76.53906;999.3611;;;;
2019/09/22 02:01:05;;;;;;;6.1;3.9;;;;;;;11.5;76.53906;999.3566;;;;
2019/09/22 02:03:30;;;;;;;5.7;3.8;;;;;;;11.46;76.76172;999.4;;;;
2019/09/22 02:05:56;;;;;;;5.2;3.6;;;;;;;11.47;76.56836;999.3688;;;;
2019/09/22 02:08:21;;;;;;;7.5;4;;;;;;;11.44;76.5752;999.3675;;;;
2019/09/22 02:10:46;;;;;;;7.4;4;;;;;;;11.37;76.88379;999.3328;;;;
2019/09/22 02:13:11;;;;;;;7.9;4.4;;;;;;;11.38;76.87207;999.3589;;;;
2019/09/22 02:15:36;;;;;;;8.5;4.2;;;;;;;11.44;76.66504;999.2815;;;;
2019/09/22 02:18:01;;;;;;;6.6;4.4;;;;;;;11.5;76.35547;999.2511;;;;
2019/09/22 02:20:26;;;;;;;7.5;4.4;;;;;;;11.46;76.39258;999.2173;;;;
2019/09/22 02:22:51;;;;;;;5.2;3.6;;;;;;;11.35;76.83301;999.1262;;;;
2019/09/22 02:25:16;;;;;;;7.1;4.2;;;;;;;11.4;76.45215;999.1443;;;;
2019/09/22 02:27:41;;;;;;;5.8;3.9;;;;;;;11.38;76.25391;999.1262;;;;
2019/09/22 02:30:06;;;;;;;6.9;3.8;;;;;;;11.42;76.07715;999.0627;;;;
2019/09/22 02:32:31;;;;;;;6.6;4.2;;;;;;;11.36;76.2627;999.0845;;;;
2019/09/22 02:34:57;;;;;;;6.8;4.1;;;;;;;11.26;76.59863;999.0652;;;;
2019/09/22 02:37:22;;;;;;;6.8;4;;;;;;;11.13;77.28711;999.0865;;;;
2019/09/22 02:39:47;;;;;;;8.9;4.7;;;;;;;11.03;77.80957;999.0644;;;;
2019/09/22 02:42:12;;;;;;;6.1;4.2;;;;;;;11.06;77.62012;999.0928;;;;
2019/09/22 02:44:37;;;;;;;7.1;4.3;;;;;;;11.12;77.46777;999.1133;;;;
2019/09/22 02:47:03;;;;;;;6.5;4.2;;;;;;;11.06;77.56152;999.1422;;;;
2019/09/22 02:49:28;;;;;;;9;4.1;;;;;;;11.02;77.53027;999.1788;;;;
2019/09/22 02:51:53;;;;;;;7.9;4.2;;;;;;;10.98;77.66309;999.122;;;;
2019/09/22 02:54:18;;;;;;;6.2;4.1;;;;;;;10.96;77.78418;999.1021;;;;
2019/09/22 02:56:43;;;;;;;6;4;;;;;;;10.85;78.12012;999.1063;;;;
2019/09/22 02:59:08;;;;;;;7.3;4.4;;;;;;;10.81;78.61523;999.087;;;;
2019/09/22 03:01:34;;;;;;;5.6;3.9;;;;;;;10.78;78.67969;999.0966;;;;
2019/09/22 03:03:59;;;;;;;6.6;4.4;;;;;;;10.73;79.16406;999.0783;;;;
2019/09/22 03:06:24;;;;;;;6.2;4.2;;;;;;;10.83;78.74609;999.1066;;;;
2019/09/22 03:08:49;;;;;;;7.9;3.9;;;;;;;10.88;78.32129;999.0911;;;;
2019/09/22 03:11:14;;;;;;;7.2;4;;;;;;;10.9;78.1748;999.0754;;;;
2019/09/22 03:13:39;;;;;;;6.2;4.1;;;;;;;10.76;78.79102;999.127;;;;
2019/09/22 03:16:04;;;;;;;5.2;3.9;;;;;;;10.6;79.58594;999.1339;;;;
2019/09/22 03:18:30;;;;;;;5.5;3.8;;;;;;;10.66;79.59668;999.1111;;;;
2019/09/22 03:20:55;;;;;;;5.3;3.8;;;;;;;10.82;78.75586;999.0559;;;;
2019/09/22 03:23:20;;;;;;;9.4;4.1;;;;;;;10.79;78.58984;999.0377;;;;
2019/09/22 03:25:45;;;;;;;6.1;3.9;;;;;;;10.75;78.81055;999.0461;;;;
2019/09/22 03:28:10;;;;;;;8.2;3.9;;;;;;;10.7;79.14551;999.0273;;;;
2019/09/22 03:30:36;;;;;;;6.5;4.2;;;;;;;10.8;78.73047;999.015;;;;
2019/09/22 03:33:01;;;;;;;6.5;4.2;;;;;;;10.82;78.59473;999.0011;;;;
2019/09/22 03:35:26;;;;;;;6.1;4;;;;;;;10.75;78.92676;999.0469;;;;
2019/09/22 03:37:51;;;;;;;5.8;4;;;;;;;10.79;78.76074;999.024;;;;
2019/09/22 03:40:16;;;;;;;7.4;3.9;;;;;;;10.9;78.28809;998.98;;;;
2019/09/22 03:42:42;;;;;;;5.4;3.9;;;;;;;10.94;77.91797;998.9847;;;;
2019/09/22 03:45:07;;;;;;;7;4;;;;;;;10.79;78.51855;998.9973;;;;
2019/09/22 03:47:32;;;;;;;7.1;4;;;;;;;10.76;78.60547;998.9744;;;;
2019/09/22 03:49:57;;;;;;;5.8;3.6;;;;;;;10.78;78.4502;998.9301;;;;
2019/09/22 03:52:22;;;;;;;6.5;4;;;;;;;10.73;78.44238;998.8791;;;;
2019/09/22 03:54:47;;;;;;;5.7;3.9;;;;;;;10.63;79.21387;998.9153;;;;
2019/09/22 03:57:12;;;;;;;4.9;3.8;;;;;;;10.63;79.40918;998.8831;;;;
2019/09/22 03:59:37;;;;;;;6.9;4.2;;;;;;;10.6;79.63086;998.8831;;;;
2019/09/22 04:02:28;;;;;;;6;4;;;;;;;10.56;80.0127;998.8835;;;;
2019/09/22 04:04:53;;;;;;;5.2;3.8;;;;;;;10.51;80.38184;998.9136;;;;
2019/09/22 04:07:18;;;;;;;6;3.8;;;;;;;10.42;80.8457;998.8276;;;;
2019/09/22 04:09:43;;;;;;;6.2;4.1;;;;;;;10.46;80.97949;998.8215;;;;
2019/09/22 04:12:08;;;;;;;6.3;4;;;;;;;10.4;82.08984;998.7851;;;;
2019/09/22 04:14:33;;;;;;;6.5;4.5;;;;;;;10.5;83.49316;998.7452;;;;
2019/09/22 04:16:58;;;;;;;8.9;4.6;;;;;;;10.66;83.38574;998.7539;;;;
2019/09/22 04:19:23;;;;;;;7.7;4.7;;;;;;;10.68;82.64648;998.694;;;;
2019/09/22 04:21:48;;;;;;;8.3;4.6;;;;;;;10.65;82.25195;998.6044;;;;
2019/09/22 04:24:13;;;;;;;6.6;4.4;;;;;;;10.51;81.9502;998.5939;;;;
2019/09/22 04:26:38;;;;;;;6.1;4.1;;;;;;;10.45;81.6748;998.5697;;;;
2019/09/22 04:29:03;;;;;;;8;4.7;;;;;;;10.38;83.48242;998.6035;;;;
2019/09/22 04:31:28;;;;;;;7.3;4.6;;;;;;;10.41;83.23438;998.6167;;;;
2019/09/22 04:33:53;;;;;;;7.8;4.7;;;;;;;10.42;83.05469;998.6478;;;;
2019/09/22 04:36:19;;;;;;;9.5;4.7;;;;;;;10.43;82.71094;998.6525;;;;
2019/09/22 04:38:43;;;;;;;7.5;4.3;;;;;;;10.42;81.9668;998.6362;;;;
2019/09/22 04:41:09;;;;;;;6;4.5;;;;;;;10.3;82.33398;998.6163;;;;
2019/09/22 04:43:34;;;;;;;6.4;4.4;;;;;;;10.33;83.12891;998.5781;;;;
2019/09/22 04:45:59;;;;;;;6;4.1;;;;;;;10.32;81.90234;998.593;;;;
2019/09/22 04:48:24;;;;;;;6.2;4.2;;;;;;;10.24;82.36816;998.6498;;;;
2019/09/22 04:50:49;;;;;;;7.1;4.2;;;;;;;10.26;82.3252;998.6187;;;;
2019/09/22 04:53:14;;;;;;;7;4.1;;;;;;;10.33;81.60645;998.569;;;;
2019/09/22 04:55:39;;;;;;;7.3;4.6;;;;;;;10.21;83.2666;998.5308;;;;
2019/09/22 04:58:04;;;;;;;9.6;4.7;;;;;;;10.16;83.6123;998.5912;;;;
2019/09/22 05:00:30;;;;;;;7.5;4.9;;;;;;;10.17;83.97852;998.5605;;;;
2019/09/22 05:02:55;;;;;;;7.1;4.1;;;;;;;10.24;82.76855;998.5446;;;;
2019/09/22 05:05:20;;;;;;;7.2;4.1;;;;;;;10.37;81.83301;998.588;;;;
2019/09/22 05:07:45;;;;;;;6.5;4;;;;;;;10.3;81.64746;998.6705;;;;
2019/09/22 05:10:13;;;;;;;8.2;4.7;;;;;;;10.23;81.62109;998.7316;;;;
2019/09/22 05:12:38;;;;;;;6.5;4.1;;;;;;;10.24;81.44141;998.7576;;;;
2019/09/22 05:15:03;;;;;;;8.5;4.1;;;;;;;10.33;80.94336;998.7972;;;;
2019/09/22 05:17:28;;;;;;;11;4.6;;;;;;;10.44;80.47168;998.7972;;;;
2019/09/22 05:19:55;;;;;;;9.8;4.8;;;;;;;10.39;80.24512;998.796;;;;
2019/09/22 05:22:20;;;;;;;6.7;4.1;;;;;;;10.27;80.16504;998.7674;;;;
2019/09/22 05:24:45;;;;;;;6.1;3.7;;;;;;;10.25;80.2168;998.7708;;;;
2019/09/22 05:27:16;;;;;;;8.5;4.2;;;;;;;10.17;80.52441;998.7802;;;;
2019/09/22 05:29:41;;;;;;;10.9;4.1;;;;;;;10.12;80.82422;998.7924;;;;
2019/09/22 05:32:06;;;;;;;12.1;4.5;;;;;;;9.89;82.4834;998.8372;;;;
2019/09/22 05:34:31;;;;;;;7;4.1;;;;;;;9.9;83.0127;998.8717;;;;
2019/09/22 05:36:56;;;;;;;7.8;4.5;;;;;;;10.02;82.65625;998.907;;;;
2019/09/22 05:39:21;;;;;;;7.6;4.9;;;;;;;10.28;81.46094;998.8618;;;;
2019/09/22 05:41:46;;;;;;;6.9;4.1;;;;;;;10.4;80.40723;998.8538;;;;
2019/09/22 05:44:11;;;;;;;6.4;3.9;;;;;;;10.42;80.3418;998.8535;;;;
2019/09/22 05:46:39;;;;;;;6.8;4.2;;;;;;;10.51;80.08398;998.8172;;;;
2019/09/22 05:49:04;;;;;;;8.3;4.7;;;;;;;10.59;79.8584;998.7813;;;;
2019/09/22 05:51:29;;;;;;;7.1;4.4;;;;;;;10.59;79.91602;998.7583;;;;
2019/09/22 05:53:54;;;;;;;6.5;4.4;;;;;;;10.68;79.62305;998.738;;;;
2019/09/22 05:56:19;;;;;;;5.7;3.8;;;;;;;10.8;78.87695;998.7825;;;;
2019/09/22 05:58:44;;;;;;;7.5;4.6;;;;;;;10.75;79.14453;998.7921;;;;
2019/09/22 06:01:09;;;;;;;5.4;4;;;;;;;10.71;79.58203;998.8557;;;;
2019/09/22 06:03:34;;;;;;;6.9;4;;;;;;;10.97;78.77148;998.8103;;;;
2019/09/22 06:05:59;;;;;;;6.6;4;;;;;;;11.34;77.2666;998.8028;;;;
2019/09/22 06:08:24;;;;;;;6.4;4;;;;;;;11.26;76.80566;998.8254;;;;
2019/09/22 06:10:49;;;;;;;7.9;5;;;;;;;11.16;77.60156;998.8576;;;;
2019/09/22 06:13:15;;;;;;;6.2;3.9;;;;;;;11.1;78.08301;998.8524;;;;
2019/09/22 06:15:40;;;;;;;5.4;3.9;;;;;;;10.96;79.02148;998.8245;;;;
2019/09/22 06:18:08;;;;;;;6.1;4.1;;;;;;;11.16;78.9082;998.882;;;;
2019/09/22 06:20:33;;;;;;;6.9;4.1;;;;;;;11.26;78.66309;998.9033;;;;
2019/09/22 06:22:58;;;;;;;12.5;4.8;;;;;;;11.55;77.50098;998.9006;;;;
2019/09/22 06:25:27;;;;;;;15.1;6;;;;;;;11.85;76.19922;998.8239;;;;
2019/09/22 06:27:52;;;;;;;7.2;4.4;;;;;;;11.92;76.42773;998.8028;;;;
2019/09/22 06:30:23;;;;;;;9.7;5.1;;;;;;;12.11;76.13965;998.7534;;;;
2019/09/22 06:32:48;;;;;;;8.6;5;;;;;;;12.27;75.98438;998.7709;;;;
2019/09/22 06:35:13;;;;;;;8.5;4.8;;;;;;;12.55;74.90723;998.8194;;;;
2019/09/22 06:37:38;;;;;;;6.6;4.3;;;;;;;13.01;73.58203;998.8459;;;;
2019/09/22 06:40:03;;;;;;;6.4;4.3;;;;;;;13.31;71.76563;998.8942;;;;
2019/09/22 06:42:28;;;;;;;5.4;4.2;;;;;;;13.51;71.57813;998.8474;;;;
2019/09/22 06:44:53;;;;;;;6.4;4.5;;;;;;;13.69;70.46777;998.8628;;;;
2019/09/22 06:47:29;;;;;;;7.7;4.1;;;;;;;14.02;69.48145;998.8777;;;;
2019/09/22 06:49:52;;;;;;;6.9;4.4;;;;;;;14.22;69.07617;998.8162;;;;
2019/09/22 06:52:17;;;;;;;5;3.7;;;;;;;15.15;65.9834;998.8215;;;;
2019/09/22 06:54:42;;;;;;;6.8;3.7;;;;;;;17.05;58.9502;998.7328;;;;
2019/09/22 06:57:07;;;;;;;7.9;3.7;;;;;;;18.49;54.10547;998.7639;;;;
2019/09/22 06:59:32;;;;;;;6;3.9;;;;;;;17.33;57.62598;998.838;;;;
2019/09/22 07:02:00;;;;;;;7.6;3.9;;;;;;;17.65;56.65625;998.9321;;;;
2019/09/22 07:04:24;;;;;;;5.9;4.2;;;;;;;17.55;56.46777;998.9339;;;;
2019/09/22 07:06:50;;;;;;;5;3.8;;;;;;;17.64;56.72363;998.9153;;;;
2019/09/22 07:09:16;;;;;;;4.8;3.7;;;;;;;17.32;57.5332;998.9045;;;;
2019/09/22 07:11:41;;;;;;;6.6;3.8;;;;;;;16.92;59.4668;998.8989;;;;
2019/09/22 07:14:06;;;;;;;5.7;3.9;;;;;;;17.1;58.56152;998.8569;;;;
2019/09/22 07:16:35;;;;;;;6.5;4.1;;;;;;;16.97;58.93848;998.9039;;;;
2019/09/22 07:19:01;;;;;;;5.4;3.7;;;;;;;16.95;59.45898;998.9277;;;;
2019/09/22 07:21:26;;;;;;;5.9;3.9;;;;;;;17;59.34961;998.9386;;;;
2019/09/22 07:23:51;;;;;;;6.7;4.1;;;;;;;17.07;59.38184;998.9761;;;;
2019/09/22 07:26:16;;;;;;;5.4;3.8;;;;;;;16.54;60.87793;998.9578;;;;
2019/09/22 07:28:43;;;;;;;6.7;4.2;;;;;;;16.14;61.65625;998.9875;;;;
2019/09/22 07:31:09;;;;;;;7.1;4.5;;;;;;;15.88;63.10449;999.0076;;;;
2019/09/22 07:33:34;;;;;;;6.9;4.5;;;;;;;15.6;63.94336;999.0911;;;;
2019/09/22 07:35:59;;;;;;;6.4;4.4;;;;;;;15.67;64.15039;999.0786;;;;
2019/09/22 07:38:26;;;;;;;6.3;4.4;;;;;;;15.83;63.1543;999.1489;;;;
2019/09/22 07:40:51;;;;;;;8.1;4.5;;;;;;;16.15;62.45898;999.137;;;;
2019/09/22 07:43:16;;;;;;;7.6;4.4;;;;;;;16.32;61.69434;999.1281;;;;
2019/09/22 07:45:41;;;;;;;6.7;4.6;;;;;;;16.36;61.67578;999.1122;;;;
2019/09/22 07:48:06;;;;;;;7.9;4.4;;;;;;;17.01;60.39648;999.0516;;;;
2019/09/22 07:50:31;;;;;;;5.7;4.2;;;;;;;17.04;59.30859;998.9734;;;;
2019/09/22 07:52:57;;;;;;;5.8;4.1;;;;;;;17.08;59.87109;998.9106;;;;
2019/09/22 07:55:22;;;;;;;7.5;4.3;;;;;;;17.08;59.41895;998.8897;;;;
2019/09/22 07:57:47;;;;;;;5.8;4.1;;;;;;;17.14;59.84473;998.9175;;;;
2019/09/22 08:00:13;;;;;;;6.4;3.8;;;;;;;17.29;59.24902;998.9451;;;;
2019/09/22 08:02:38;;;;;;;7.3;4.4;;;;;;;17.52;58.91992;998.9426;;;;
2019/09/22 08:05:03;;;;;;;8.5;4.4;;;;;;;17.41;58.68359;998.9524;;;;
2019/09/22 08:07:29;;;;;;;5.2;3.8;;;;;;;17.59;58.34668;998.9161;;;;
2019/09/22 08:09:54;;;;;;;7.2;4.4;;;;;;;17.3;59.2041;998.8592;;;;
2019/09/22 08:12:19;;;;;;;6.2;4.1;;;;;;;17.25;59.58008;998.8262;;;;
2019/09/22 08:14:44;;;;;;;8.5;4.1;;;;;;;17.44;59.54785;998.754;;;;
2019/09/22 08:17:09;;;;;;;5.9;3.8;;;;;;;17.62;59.00195;998.7709;;;;
2019/09/22 08:19:37;;;;;;;7.2;4;;;;;;;17.84;58.13574;998.8544;;;;
2019/09/22 08:22:02;;;;;;;5.2;3.9;;;;;;;17.98;58.3877;998.873;;;;
2019/09/22 08:24:27;;;;;;;5.6;3.8;;;;;;;18.16;57.62988;998.8535;;;;
2019/09/22 08:26:54;;;;;;;5.9;3.9;;;;;;;17.98;58.1543;998.8176;;;;
2019/09/22 08:29:19;;;;;;;6.5;3.9;;;;;;;18.08;57.76074;998.7966;;;;
2019/09/22 08:31:47;;;;;;;4.4;3.6;;;;;;;18.9;55.5332;998.7726;;;;
2019/09/22 08:34:12;;;;;;;8.1;3.8;;;;;;;19.27;54.14453;998.7463;;;;
2019/09/22 08:36:37;;;;;;;7.3;3.8;;;;;;;18.53;55.82617;998.6519;;;;
2019/09/22 08:39:02;;;;;;;6;3.5;;;;;;;18.7;55.8584;998.6386;;;;
2019/09/22 08:41:27;;;;;;;4.8;3.4;;;;;;;19.21;54.49805;998.6758;;;;
2019/09/22 08:43:52;;;;;;;5.6;3.4;;;;;;;19.27;53.29199;998.6989;;;;
2019/09/22 08:46:17;;;;;;;4.8;3.5;;;;;;;18.61;55.625;998.7151;;;;
2019/09/22 08:48:43;;;;;;;7.5;3.5;;;;;;;19.03;54.6748;998.7514;;;;
2019/09/22 08:51:13;;;;;;;6.4;3.6;;;;;;;18.3;56.77539;998.7701;;;;
2019/09/22 08:53:38;;;;;;;5.2;3.2;;;;;;;18.76;55.83105;998.7775;;;;
2019/09/22 08:56:03;;;;;;;7.9;4;;;;;;;19.16;54.31641;998.7087;;;;
2019/09/22 08:58:28;;;;;;;5.6;3.4;;;;;;;19.08;54.55273;998.7235;;;;
2019/09/22 09:00:53;;;;;;;4.5;3.4;;;;;;;19.74;52.9043;998.7478;;;;
2019/09/22 09:03:18;;;;;;;6.7;3.8;;;;;;;19.48;52.9541;998.7598;;;;
2019/09/22 09:05:43;;;;;;;5.6;3.6;;;;;;;19.44;53.42773;998.7234;;;;
2019/09/22 09:08:09;;;;;;;6.5;3.5;;;;;;;19.52;53.2041;998.6473;;;;
2019/09/22 09:10:34;;;;;;;4.9;3.1;;;;;;;19.62;53.23926;998.5963;;;;
2019/09/22 09:12:59;;;;;;;5.4;3.6;;;;;;;19.59;53.21289;998.6219;;;;
2019/09/22 09:15:24;;;;;;;7.6;3.5;;;;;;;19.63;52.87793;998.5248;;;;
2019/09/22 09:17:49;;;;;;;4.2;3.1;;;;;;;19.04;54.69922;998.5228;;;;
2019/09/22 09:20:14;;;;;;;6.8;3.8;;;;;;;19.24;53.60352;998.5662;;;;
2019/09/22 09:22:39;;;;;;;6.8;3.5;;;;;;;19.31;53.8916;998.5911;;;;
2019/09/22 09:25:04;;;;;;;5.3;3.1;;;;;;;19.65;52.8584;998.577;;;;
2019/09/22 09:27:29;;;;;;;5.8;3.6;;;;;;;19.83;52.31836;998.6005;;;;
2019/09/22 09:29:54;;;;;;;5.2;3.4;;;;;;;19.71;52.65527;998.6407;;;;
2019/09/22 09:32:20;;;;;;;5.9;3.7;;;;;;;19.19;53.87695;998.6099;;;;
2019/09/22 09:34:45;;;;;;;6.1;4;;;;;;;19.12;54.19531;998.4964;;;;
2019/09/22 09:37:10;;;;;;;5.2;3.9;;;;;;;19.55;53.13867;998.4807;;;;
2019/09/22 09:39:35;;;;;;;5.7;3.6;;;;;;;20;52.00977;998.3759;;;;
2019/09/22 09:42:00;;;;;;;5.7;3.7;;;;;;;19.99;51.45996;998.4216;;;;
2019/09/22 09:44:25;;;;;;;9.6;4.3;;;;;;;19.81;51.88379;998.4785;;;;
2019/09/22 09:46:50;;;;;;;6.6;4.1;;;;;;;19.49;52.64063;998.5356;;;;
2019/09/22 09:49:15;;;;;;;7.1;4.1;;;;;;;19.72;52.43262;998.5114;;;;
2019/09/22 09:51:40;;;;;;;9.8;4.5;;;;;;;19.91;51.01758;998.4576;;;;
2019/09/22 09:54:05;;;;;;;7.8;4.4;;;;;;;20.28;50.1123;998.5056;;;;
2019/09/22 09:56:31;;;;;;;6.5;4.2;;;;;;;20.02;50.55078;998.4458;;;;
2019/09/22 09:58:56;;;;;;;6.8;4.2;;;;;;;20.59;49.49121;998.3463;;;;
2019/09/22 10:01:26;;;;;;;7.3;4.5;;;;;;;20.95;48.52441;998.3489;;;;
2019/09/22 10:03:51;;;;;;;6.6;4.4;;;;;;;21.67;46.57129;998.2787;;;;
2019/09/22 10:06:16;;;;;;;6.5;4.6;;;;;;;22.39;45.24609;998.2722;;;;
2019/09/22 10:08:41;;;;;;;8.5;4.1;;;;;;;22.49;44.63281;998.265;;;;
2019/09/22 10:11:07;;;;;;;5.3;4.2;;;;;;;22.74;43.77539;998.2071;;;;
2019/09/22 10:13:33;;;;;;;7.2;4.5;;;;;;;23;43.15332;998.2231;;;;
2019/09/22 10:16:02;;;;;;;8.1;4.4;;;;;;;23.9;41.22168;998.2296;;;;
2019/09/22 10:18:27;;;;;;;9.8;4.8;;;;;;;24.68;39.07227;998.1417;;;;
2019/09/22 10:20:56;;;;;;;5.1;4.1;;;;;;;23.82;41.29785;998.0579;;;;
2019/09/22 10:23:21;;;;;;;7.2;4.3;;;;;;;23.97;40.55566;998.0125;;;;
2019/09/22 10:25:46;;;;;;;7.2;4.4;;;;;;;23.52;41.68262;997.9584;;;;
2019/09/22 10:28:12;;;;;;;5.8;4.2;;;;;;;23.71;41.60645;997.9309;;;;
2019/09/22 10:30:37;;;;;;;6.6;4.2;;;;;;;23.16;42.40332;997.9302;;;;
2019/09/22 10:33:04;;;;;;;8.7;4.7;;;;;;;22.81;43.81934;997.9433;;;;
2019/09/22 10:35:29;;;;;;;6.6;4.2;;;;;;;22.92;43.66406;997.9928;;;;
2019/09/22 10:37:54;;;;;;;6.5;4.5;;;;;;;23.16;43.07422;998.0139;;;;
2019/09/22 10:40:19;;;;;;;7.1;4.6;;;;;;;22.68;44.19336;997.9391;;;;
2019/09/22 10:42:45;;;;;;;5.7;4.2;;;;;;;23.33;42.39648;997.8886;;;;
2019/09/22 10:45:10;;;;;;;7.2;4.6;;;;;;;23.61;42.13867;997.8719;;;;
2019/09/22 10:47:35;;;;;;;8.3;4.9;;;;;;;23.23;42.71582;997.8208;;;;
2019/09/22 10:50:00;;;;;;;7.6;4.5;;;;;;;22.48;44.71582;997.7341;;;;
2019/09/22 10:52:28;;;;;;;8.2;4.1;;;;;;;22.88;44.27148;997.6912;;;;
2019/09/22 10:54:52;;;;;;;6.6;4.1;;;;;;;23.79;41.75586;997.7598;;;;
2019/09/22 10:57:18;;;;;;;7.2;4;;;;;;;24.2;40.94434;997.7012;;;;
2019/09/22 10:59:43;;;;;;;6.5;4;;;;;;;23.59;41.73633;997.6758;;;;
2019/09/22 11:02:11;;;;;;;9;4.3;;;;;;;24.47;40.56641;997.6789;;;;
2019/09/22 11:04:37;;;;;;;6.7;4;;;;;;;23.61;42.08105;997.7153;;;;
2019/09/22 11:07:03;;;;;;;6.5;4.2;;;;;;;23.52;42.43652;997.7068;;;;
2019/09/22 11:09:28;;;;;;;6.9;4.4;;;;;;;23.37;42.69434;997.6433;;;;
2019/09/22 11:11:54;;;;;;;6.4;4.2;;;;;;;23.53;42.32031;997.6054;;;;
2019/09/22 11:14:19;;;;;;;5.3;4.2;;;;;;;23.6;42.78809;997.5847;;;;
2019/09/22 11:16:46;;;;;;;7.7;4.1;;;;;;;23.27;42.98047;997.6072;;;;
2019/09/22 11:19:11;;;;;;;6.7;4.4;;;;;;;23.17;43.52344;997.5428;;;;
2019/09/22 11:21:36;;;;;;;7.8;4.7;;;;;;;22.81;44.27734;997.4977;;;;
2019/09/22 11:24:01;;;;;;;6.2;4.7;;;;;;;22.74;44.27051;997.4971;;;;
2019/09/22 11:26:26;;;;;;;6.4;4.5;;;;;;;23.01;43.82617;997.4707;;;;
2019/09/22 11:28:51;;;;;;;7.4;4.6;;;;;;;23.4;43.18164;997.426;;;;
2019/09/22 11:31:16;;;;;;;6.2;3.8;;;;;;;23.61;42.11621;997.447;;;;
2019/09/22 11:33:41;;;;;;;6.1;3.8;;;;;;;23.55;42.61719;997.4008;;;;
2019/09/22 11:36:06;;;;;;;5.8;3.6;;;;;;;23.96;42.19629;997.2631;;;;
2019/09/22 11:38:32;;;;;;;4.5;3.4;;;;;;;23.78;42.40332;997.293;;;;
2019/09/22 11:40:57;;;;;;;6;3.8;;;;;;;23.52;42.7793;997.2941;;;;
2019/09/22 11:43:22;;;;;;;5.7;3.6;;;;;;;23.88;42.58984;997.2396;;;;
2019/09/22 11:45:49;;;;;;;5.8;4.2;;;;;;;23.56;43.33789;997.2352;;;;
2019/09/22 11:48:14;;;;;;;7.5;3.9;;;;;;;23.8;42.66504;997.2317;;;;
2019/09/22 11:50:39;;;;;;;5.6;3.7;;;;;;;23.84;42.69336;997.2369;;;;
2019/09/22 11:53:04;;;;;;;5.7;3.7;;;;;;;23.93;42.87793;997.2269;;;;
2019/09/22 11:55:33;;;;;;;5.4;3.6;;;;;;;24.01;42.60254;997.1928;;;;
2019/09/22 11:57:56;;;;;;;5;3.5;;;;;;;24.15;42.50879;997.1502;;;;
2019/09/22 12:00:21;;;;;;;5.1;3.3;;;;;;;24.28;42.06152;997.0511;;;;
2019/09/22 12:02:46;;;;;;;4.8;3.3;;;;;;;23.83;42.79785;997.0148;;;;
2019/09/22 12:05:11;;;;;;;5.7;3.3;;;;;;;23.52;43.73535;996.9981;;;;
2019/09/22 12:07:36;;;;;;;6.3;3.3;;;;;;;23.93;42.72461;996.9377;;;;
2019/09/22 12:10:01;;;;;;;5.2;3.1;;;;;;;24.13;42.43652;996.8329;;;;
2019/09/22 12:12:26;;;;;;;6.6;3.5;;;;;;;23.92;42.61719;996.8515;;;;
2019/09/22 12:14:51;;;;;;;7.6;3.5;;;;;;;23.94;42.87988;996.8408;;;;
2019/09/22 12:17:17;;;;;;;6;4;;;;;;;23.79;42.99414;996.8356;;;;
2019/09/22 12:19:42;;;;;;;5.9;3.6;;;;;;;23.36;43.99023;996.8156;;;;
2019/09/22 12:22:07;;;;;;;6.1;3.6;;;;;;;23.54;44.11426;996.8109;;;;
2019/09/22 12:24:34;;;;;;;4.3;3.1;;;;;;;23.5;44.00391;996.7537;;;;
2019/09/22 12:26:59;;;;;;;5.7;3.3;;;;;;;24;43.19141;996.6877;;;;
2019/09/22 12:29:24;;;;;;;7.9;3.3;;;;;;;23.94;43.31641;996.7112;;;;
2019/09/22 12:31:49;;;;;;;4.2;3.1;;;;;;;24.06;42.97266;996.6841;;;;
2019/09/22 12:34:14;;;;;;;7.1;3.1;;;;;;;24.35;42.17383;996.6553;;;;
2019/09/22 12:36:40;;;;;;;5;3.1;;;;;;;24.47;41.9375;996.6188;;;;
2019/09/22 12:39:05;;;;;;;6.6;3;;;;;;;24.68;41.7793;996.5986;;;;
2019/09/22 12:41:30;;;;;;;5.6;3.4;;;;;;;24.61;41.67871;996.5821;;;;
2019/09/22 12:43:56;;;;;;;4.6;3;;;;;;;24.41;42.00195;996.4955;;;;
2019/09/22 12:46:21;;;;;;;4.7;3.2;;;;;;;24.39;42.22461;996.4561;;;;
2019/09/22 12:48:51;;;;;;;4.8;3;;;;;;;24.19;42.87891;996.4295;;;;
2019/09/22 12:51:16;;;;;;;6.3;3.2;;;;;;;24.04;43.00684;996.3736;;;;
2019/09/22 12:53:43;;;;;;;5.3;2.8;;;;;;;24.39;42.4375;996.365;;;;
2019/09/22 12:56:08;;;;;;;5.4;3.4;;;;;;;24.26;42.73145;996.3438;;;;
2019/09/22 12:58:33;;;;;;;4.2;3.1;;;;;;;23.84;43.45996;996.2982;;;;
2019/09/22 13:00:58;;;;;;;6.9;3.2;;;;;;;23.97;43.47266;996.2578;;;;
2019/09/22 13:03:23;;;;;;;6.2;3.1;;;;;;;24.21;42.66797;996.1733;;;;
2019/09/22 13:05:48;;;;;;;5.4;3.1;;;;;;;23.82;43.59863;996.1337;;;;
2019/09/22 13:08:13;;;;;;;6.1;3.3;;;;;;;23.83;43.63477;996.0928;;;;
2019/09/22 13:10:42;;;;;;;6.7;3.4;;;;;;;23.76;43.73438;996.1111;;;;
2019/09/22 13:13:07;;;;;;;6.1;3.2;;;;;;;23.78;43.92578;996.1475;;;;
2019/09/22 13:15:32;;;;;;;3.8;2.6;;;;;;;23.96;43.41211;996.1156;;;;
2019/09/22 13:17:58;;;;;;;6.3;3.3;;;;;;;23.5;44.03906;996.0999;;;;
2019/09/22 13:20:23;;;;;;;6.4;3.4;;;;;;;23.56;44.375;996.0129;;;;
2019/09/22 13:22:48;;;;;;;5.5;3;;;;;;;23.72;44.16602;996.0739;;;;
2019/09/22 13:25:13;;;;;;;5.8;3;;;;;;;23.99;43.46289;996.0776;;;;
2019/09/22 13:27:38;;;;;;;6;3.1;;;;;;;23.78;43.52441;996.0474;;;;
2019/09/22 13:30:07;;;;;;;4.5;3;;;;;;;23.83;43.50586;996.1297;;;;
2019/09/22 13:32:37;;;;;;;6.3;3;;;;;;;23.73;43.9209;996.0754;;;;
2019/09/22 13:35:02;;;;;;;4.5;3.1;;;;;;;23.99;43.46191;996.0754;;;;
2019/09/22 13:37:28;;;;;;;5.8;2.9;;;;;;;23.82;43.76367;996.0767;;;;
2019/09/22 13:39:53;;;;;;;5.4;2.8;;;;;;;23.54;44.57422;996.1005;;;;
2019/09/22 13:42:18;;;;;;;6.2;2.7;;;;;;;23.79;44.41016;996.0651;;;;
2019/09/22 13:44:49;;;;;;;5.1;3.2;;;;;;;23.91;43.6084;996.051;;;;
2019/09/22 13:47:20;;;;;;;5.5;2.8;;;;;;;23.67;44.64551;996.0286;;;;
2019/09/22 13:49:45;;;;;;;5.2;3;;;;;;;23.67;44.7168;996.0625;;;;
2019/09/22 13:52:09;;;;;;;5.2;2.8;;;;;;;23.76;44.51367;996.0822;;;;
2019/09/22 13:54:35;;;;;;;6.2;3.1;;;;;;;23.7;44.04785;996.0361;;;;
2019/09/22 13:57:00;;;;;;;6.9;3;;;;;;;23.71;43.94238;996.0325;;;;
2019/09/22 13:59:25;;;;;;;7.4;3.2;;;;;;;23.75;43.4502;996.0734;;;;
2019/09/22 14:01:50;;;;;;;6.1;2.8;;;;;;;23.72;43.42383;996.0306;;;;
2019/09/22 14:04:15;;;;;;;4.7;2.9;;;;;;;23.9;42.96973;996.043;;;;
2019/09/22 14:06:40;;;;;;;4.6;2.9;;;;;;;23.97;42.66895;996.0394;;;;
2019/09/22 14:09:08;;;;;;;5.8;3.4;;;;;;;23.81;43.03125;996.055;;;;
2019/09/22 14:11:33;;;;;;;7.1;3;;;;;;;24.22;41.7832;996.0128;;;;
2019/09/22 14:13:58;;;;;;;6.1;2.9;;;;;;;23.79;42.65234;995.9856;;;;